createdAt,value
2022-08-03T00:01:30.587Z,25.49
2022-08-03T00:03:57.448Z,25.64
2022-08-03T00:06:24.183Z,25.58
2022-08-03T00:08:51.083Z,25.60
2022-08-03T00:11:17.874Z,25.58
2022-08-03T00:13:44.690Z,25.47
2022-08-03T00:16:11.864Z,25.56
2022-08-03T00:18:38.547Z,25.48
2022-08-03T00:21:05.901Z,25.47
2022-08-03T00:23:51.804Z,25.37
2022-08-03T00:26:20.815Z,25.16
2022-08-03T00:28:48.230Z,25.45
2022-08-03T00:31:15.122Z,25.37
2022-08-03T00:33:59.629Z,25.35
2022-08-03T00:36:28.883Z,25.09
2022-08-03T00:38:56.341Z,25.12
2022-08-03T00:41:23.507Z,25.01
2022-08-03T00:43:50.658Z,25.00
2022-08-03T00:46:21.439Z,24.95
2022-08-03T00:48:52.451Z,25.14
2022-08-03T00:51:20.804Z,24.86
2022-08-03T00:53:48.069Z,24.97
2022-08-03T00:56:16.281Z,25.14
2022-08-03T00:58:47.189Z,25.12
2022-08-03T01:01:14.984Z,25.19
2022-08-03T01:03:42.133Z,24.98
2022-08-03T01:06:18.722Z,25.12
2022-08-03T01:09:00.304Z,25.03
2022-08-03T01:11:59.956Z,24.83
2022-08-03T01:14:45.965Z,24.75
2022-08-03T01:17:25.803Z,24.55
2022-08-03T01:20:10.618Z,24.56
2022-08-03T01:22:45.381Z,24.40
2022-08-03T01:25:21.316Z,24.44
2022-08-03T01:28:02.735Z,24.66
2022-08-03T01:30:35.323Z,24.30
2022-08-03T01:33:30.020Z,24.40
2022-08-03T01:36:04.979Z,24.43
2022-08-03T01:38:58.638Z,24.25
2022-08-03T01:41:31.507Z,24.31
2022-08-03T01:44:28.275Z,24.25
2022-08-03T01:46:50.037Z,23.92
2022-08-03T01:49:18.209Z,23.87
2022-08-03T01:52:03.056Z,24.06
2022-08-03T01:54:36.329Z,23.84
2022-08-03T01:57:03.894Z,23.97
2022-08-03T01:59:34.511Z,24.17
2022-08-03T02:02:29.016Z,24.17
2022-08-03T02:04:52.773Z,24.11
2022-08-03T02:07:20.558Z,24.20
2022-08-03T02:09:51.465Z,24.41
2022-08-03T02:12:19.332Z,24.10
2022-08-03T02:14:48.722Z,24.38
2022-08-03T02:17:16.273Z,24.35
2022-08-03T02:19:44.156Z,24.19
2022-08-03T02:22:13.363Z,24.40
2022-08-03T02:24:40.723Z,24.20
2022-08-03T02:27:18.490Z,23.47
2022-08-03T02:29:49.235Z,23.74
2022-08-03T02:32:20.455Z,23.68
2022-08-03T02:34:51.750Z,24.01
2022-08-03T02:37:20.115Z,24.07
2022-08-03T02:39:48.240Z,24.13
2022-08-03T02:42:17.157Z,24.26
2022-08-03T02:44:48.510Z,24.14
2022-08-03T02:47:17.185Z,24.16
2022-08-03T02:49:50.876Z,23.91
2022-08-03T02:52:24.326Z,23.87
2022-08-03T02:54:55.378Z,23.92
2022-08-03T02:57:23.272Z,23.75
2022-08-03T02:59:51.705Z,23.73
2022-08-03T03:02:19.829Z,23.79
2022-08-03T03:05:50.732Z,23.86
2022-08-03T03:07:52.165Z,23.79
2022-08-03T03:10:22.743Z,23.80
2022-08-03T03:12:52.237Z,23.78
2022-08-03T03:15:19.327Z,23.68
2022-08-03T03:17:48.379Z,23.90
2022-08-03T03:20:15.810Z,23.85
2022-08-03T03:22:58.883Z,23.87
2022-08-03T03:25:27.876Z,23.73
2022-08-03T03:27:55.083Z,23.67
2022-08-03T03:30:25.126Z,23.66
2022-08-03T03:32:52.736Z,23.79
2022-08-03T03:35:19.550Z,23.67
2022-08-03T03:37:46.502Z,23.72
2022-08-03T03:40:14.489Z,23.55
2022-08-03T03:42:41.414Z,23.68
2022-08-03T03:45:08.839Z,23.53
2022-08-03T03:47:35.960Z,23.64
2022-08-03T03:50:06.941Z,23.46
2022-08-03T03:52:34.602Z,23.51
2022-08-03T03:55:01.925Z,23.49
2022-08-03T03:57:29.657Z,23.40
2022-08-03T03:59:56.806Z,23.49
2022-08-03T04:02:23.637Z,23.60
2022-08-03T04:05:09.365Z,23.64
2022-08-03T04:08:20.552Z,23.25
2022-08-03T04:11:12.807Z,23.40
2022-08-03T04:14:03.550Z,23.27
2022-08-03T04:16:41.909Z,23.57
2022-08-03T04:19:34.091Z,23.74
2022-08-03T04:22:05.920Z,23.85
2022-08-03T04:24:41.480Z,23.85
2022-08-03T04:27:11.449Z,23.88
2022-08-03T04:29:48.192Z,24.04
2022-08-03T04:32:16.200Z,24.05
2022-08-03T04:34:43.964Z,23.71
2022-08-03T04:37:21.724Z,24.06
2022-08-03T04:39:51.002Z,24.04
2022-08-03T04:42:22.564Z,24.17
2022-08-03T04:44:50.781Z,23.95
2022-08-03T04:47:17.590Z,23.93
2022-08-03T04:49:45.041Z,23.62
2022-08-03T04:52:12.381Z,23.83
2022-08-03T04:54:45.922Z,23.88
2022-08-03T04:57:23.024Z,23.66
2022-08-03T05:00:02.467Z,24.15
2022-08-03T05:02:31.192Z,24.36
2022-08-03T05:04:58.409Z,24.10
2022-08-03T05:07:25.589Z,23.73
2022-08-03T05:10:01.510Z,24.25
2022-08-03T05:12:32.875Z,23.90
2022-08-03T05:15:00.602Z,23.88
2022-08-03T05:17:28.458Z,23.90
2022-08-03T05:19:56.169Z,24.26
2022-08-03T05:22:23.794Z,24.01
2022-08-03T05:24:50.555Z,23.97
2022-08-03T05:27:20.037Z,23.68
2022-08-03T05:29:48.219Z,24.15
2022-08-03T05:32:15.562Z,23.40
2022-08-03T05:34:42.399Z,23.77
2022-08-03T05:37:09.740Z,24.29
2022-08-03T05:39:36.619Z,24.56
2022-08-03T05:42:03.607Z,24.51
2022-08-03T05:44:31.697Z,24.42
2022-08-03T05:46:59.314Z,24.40
2022-08-03T05:49:26.268Z,23.97
2022-08-03T05:52:00.043Z,24.11
2022-08-03T05:54:56.407Z,24.63
2022-08-03T05:57:26.143Z,24.10
2022-08-03T05:59:54.001Z,24.38
2022-08-03T06:02:24.775Z,24.80
2022-08-03T06:04:51.620Z,25.18
2022-08-03T06:07:18.657Z,25.01
2022-08-03T06:10:34.008Z,24.72
2022-08-03T06:12:32.235Z,25.16
2022-08-03T06:14:59.008Z,25.23
2022-08-03T06:17:25.730Z,25.70
2022-08-03T06:19:53.970Z,25.54
2022-08-03T06:22:20.815Z,25.42
2022-08-03T06:24:51.550Z,24.86
2022-08-03T06:27:20.729Z,25.20
2022-08-03T06:30:04.254Z,25.17
2022-08-03T06:32:30.993Z,25.85
2022-08-03T06:34:57.703Z,25.77
2022-08-03T06:37:24.690Z,25.49
2022-08-03T06:39:51.363Z,25.65
2022-08-03T06:42:18.469Z,26.13
2022-08-03T06:44:47.760Z,26.20
2022-08-03T06:47:14.581Z,26.63
2022-08-03T06:49:41.803Z,26.59
2022-08-03T06:52:08.541Z,26.40
2022-08-03T06:54:36.353Z,26.61
2022-08-03T06:57:03.805Z,26.54
2022-08-03T07:00:10.468Z,26.66
2022-08-03T07:02:19.899Z,27.12
2022-08-03T07:04:49.245Z,27.36
2022-08-03T07:07:16.091Z,27.33
2022-08-03T07:09:42.860Z,27.29
2022-08-03T07:12:24.551Z,26.89
2022-08-03T07:14:51.315Z,27.78
2022-08-03T07:17:18.072Z,27.60
2022-08-03T07:19:44.947Z,27.97
2022-08-03T07:22:11.811Z,27.92
2022-08-03T07:24:38.568Z,27.53
2022-08-03T07:27:05.360Z,27.94
2022-08-03T07:29:34.752Z,28.13
2022-08-03T07:32:02.003Z,27.78
2022-08-03T07:34:29.064Z,28.02
2022-08-03T07:36:55.878Z,28.21
2022-08-03T07:39:22.662Z,28.43
2022-08-03T07:41:51.594Z,28.24
2022-08-03T07:44:19.767Z,28.38
2022-08-03T07:46:47.177Z,27.60
2022-08-03T07:49:14.481Z,28.26
2022-08-03T07:51:41.328Z,27.89
2022-08-03T07:54:10.210Z,27.95
2022-08-03T07:56:37.581Z,28.40
2022-08-03T07:59:07.260Z,28.56
2022-08-03T08:01:36.645Z,28.85
2022-08-03T08:04:04.664Z,29.38
2022-08-03T08:06:32.734Z,29.53
2022-08-03T08:09:02.334Z,29.46
2022-08-03T08:11:29.127Z,29.64
2022-08-03T08:13:55.972Z,29.61
2022-08-03T08:16:22.722Z,29.10
2022-08-03T08:18:49.437Z,29.07
2022-08-03T08:21:16.319Z,29.29
2022-08-03T08:23:46.234Z,29.51
2022-08-03T08:26:22.554Z,29.68
2022-08-03T08:28:49.549Z,29.56
2022-08-03T08:31:16.318Z,29.71
2022-08-03T08:34:03.052Z,29.57
2022-08-03T08:36:29.727Z,29.59
2022-08-03T08:38:56.550Z,29.80
2022-08-03T08:41:23.326Z,30.13
2022-08-03T08:43:50.108Z,29.87
2022-08-03T08:46:23.590Z,29.92
2022-08-03T08:48:52.781Z,29.97
2022-08-03T08:51:22.190Z,30.30
2022-08-03T08:53:52.619Z,30.30
2022-08-03T08:56:22.841Z,30.14
2022-08-03T08:58:53.268Z,30.67
2022-08-03T09:01:20.799Z,30.69
2022-08-03T09:03:51.786Z,30.88
2022-08-03T09:06:18.551Z,30.89
2022-08-03T09:08:45.243Z,31.13
2022-08-03T09:11:12.302Z,31.17
2022-08-03T09:13:39.311Z,30.90
2022-08-03T09:16:24.024Z,31.26
2022-08-03T09:18:53.343Z,31.57
2022-08-03T09:21:32.948Z,31.69
2022-08-03T09:24:04.342Z,32.09
2022-08-03T09:26:35.186Z,31.93
2022-08-03T09:29:13.526Z,31.61
2022-08-03T09:31:44.673Z,31.51
2022-08-03T09:34:14.129Z,31.99
2022-08-03T09:36:52.331Z,31.68
2022-08-03T09:39:41.770Z,31.68
2022-08-03T09:42:23.757Z,31.97
2022-08-03T09:44:52.113Z,31.95
2022-08-03T09:47:34.408Z,32.27
2022-08-03T09:50:04.287Z,32.70
2022-08-03T09:52:52.304Z,32.18
2022-08-03T09:56:33.399Z,32.40
2022-08-03T09:58:11.878Z,32.30
2022-08-03T10:00:57.698Z,32.52
2022-08-03T10:03:26.446Z,32.83
2022-08-03T10:05:59.047Z,32.79
2022-08-03T10:08:26.524Z,32.34
2022-08-03T10:10:58.609Z,32.80
2022-08-03T10:13:25.574Z,32.35
2022-08-03T10:16:21.916Z,32.65
2022-08-03T10:18:39.144Z,32.63
2022-08-03T10:21:10.516Z,33.03
2022-08-03T10:23:38.622Z,32.62
2022-08-03T10:26:07.799Z,32.99
2022-08-03T10:28:47.200Z,32.73
2022-08-03T10:31:14.561Z,33.04
2022-08-03T10:33:52.833Z,33.43
2022-08-03T10:36:24.655Z,32.86
2022-08-03T10:38:53.304Z,33.04
2022-08-03T10:41:21.969Z,33.61
2022-08-03T10:44:23.097Z,33.57
2022-08-03T10:46:51.283Z,33.90
2022-08-03T10:49:25.478Z,33.94
2022-08-03T10:52:10.386Z,34.10
2022-08-03T10:55:07.592Z,34.22
2022-08-03T10:57:58.387Z,34.55
2022-08-03T11:00:28.270Z,34.45
2022-08-03T11:03:06.528Z,34.00
2022-08-03T11:05:48.248Z,34.38
2022-08-03T11:08:36.906Z,34.52
2022-08-03T11:11:28.679Z,34.44
2022-08-03T11:14:08.175Z,34.70
2022-08-03T11:16:36.492Z,34.77
2022-08-03T11:19:09.247Z,34.40
2022-08-03T11:21:57.087Z,34.47
2022-08-03T11:24:51.404Z,34.09
2022-08-03T11:27:19.307Z,34.25
2022-08-03T11:29:56.914Z,34.40
2022-08-03T11:32:46.764Z,34.54
2022-08-03T11:35:15.333Z,34.41
2022-08-03T11:38:03.163Z,34.28
2022-08-03T11:40:45.164Z,34.76
2022-08-03T11:43:33.886Z,34.73
2022-08-03T11:46:28.546Z,34.61
2022-08-03T11:49:09.868Z,34.87
2022-08-03T11:51:38.832Z,34.60
2022-08-03T11:54:06.970Z,34.68
2022-08-03T11:56:48.798Z,34.96
2022-08-03T11:59:21.578Z,34.73
2022-08-03T12:01:50.225Z,34.52
2022-08-03T12:04:17.009Z,34.71
2022-08-03T12:06:59.238Z,35.27
2022-08-03T12:09:26.139Z,35.32
2022-08-03T12:12:00.363Z,35.49
2022-08-03T12:14:49.020Z,35.30
2022-08-03T12:17:19.180Z,35.67
2022-08-03T12:19:46.557Z,35.86
2022-08-03T12:22:13.728Z,35.68
2022-08-03T12:24:46.868Z,35.56
2022-08-03T12:27:25.035Z,35.12
2022-08-03T12:29:58.334Z,34.46
2022-08-03T12:32:27.444Z,34.05
2022-08-03T12:34:55.632Z,34.10
2022-08-03T12:37:23.651Z,34.22
2022-08-03T12:40:02.647Z,34.32
2022-08-03T12:42:32.701Z,34.28
2022-08-03T12:44:59.429Z,33.93
2022-08-03T12:47:26.283Z,34.02
2022-08-03T12:49:54.218Z,34.43
2022-08-03T12:52:22.741Z,34.92
2022-08-03T12:55:01.135Z,35.26
2022-08-03T12:57:41.263Z,35.79
2022-08-03T13:00:28.777Z,35.38
2022-08-03T13:03:38.437Z,35.35
2022-08-03T13:05:52.884Z,35.07
2022-08-03T13:08:22.272Z,34.80
2022-08-03T13:10:49.410Z,35.08
2022-08-03T13:13:16.668Z,35.18
2022-08-03T13:15:48.162Z,35.10
2022-08-03T13:18:17.176Z,34.93
2022-08-03T13:20:44.433Z,34.40
2022-08-03T13:23:15.380Z,34.09
2022-08-03T13:25:55.237Z,34.33
2022-08-03T13:28:23.118Z,34.26
2022-08-03T13:30:49.849Z,33.46
2022-08-03T13:33:17.908Z,34.10
2022-08-03T13:35:44.771Z,33.30
2022-08-03T13:38:11.692Z,33.62
2022-08-03T13:40:41.676Z,33.82
2022-08-03T13:43:09.028Z,33.32
2022-08-03T13:45:35.895Z,33.13
2022-08-03T13:48:02.565Z,33.07
2022-08-03T13:50:30.227Z,33.27
2022-08-03T13:52:57.961Z,33.28
2022-08-03T13:55:25.139Z,32.58
2022-08-03T13:58:11.795Z,33.05
2022-08-03T14:00:39.884Z,33.22
2022-08-03T14:03:13.828Z,33.41
2022-08-03T14:05:42.966Z,33.55
2022-08-03T14:08:10.493Z,33.39
2022-08-03T14:10:40.592Z,33.05
2022-08-03T14:13:08.025Z,32.68
2022-08-03T14:15:38.115Z,32.96
2022-08-03T14:18:07.219Z,33.29
2022-08-03T14:20:50.067Z,33.64
2022-08-03T14:23:21.798Z,33.03
2022-08-03T14:25:51.897Z,33.46
2022-08-03T14:28:22.358Z,32.75
2022-08-03T14:30:49.863Z,32.39
2022-08-03T14:33:16.595Z,32.58
2022-08-03T14:35:43.398Z,32.01
2022-08-03T14:38:10.134Z,31.58
2022-08-03T14:40:36.873Z,31.48
2022-08-03T14:43:03.946Z,31.58
2022-08-03T14:45:31.131Z,31.52
2022-08-03T14:50:29.596Z,32.49
2022-08-03T14:50:51.049Z,32.69
2022-08-03T14:53:20.015Z,33.42
2022-08-03T14:55:50.398Z,33.48
2022-08-03T14:58:22.594Z,33.45
2022-08-03T15:00:51.546Z,33.26
2022-08-03T15:03:25.381Z,32.77
2022-08-03T15:05:56.571Z,31.24
2022-08-03T15:08:26.027Z,31.42
2022-08-03T15:10:57.023Z,31.17
2022-08-03T15:13:25.325Z,30.70
2022-08-03T15:15:52.435Z,30.32
2022-08-03T15:18:20.145Z,30.65
2022-08-03T15:20:49.061Z,30.93
2022-08-03T15:23:16.742Z,30.63
2022-08-03T15:26:29.291Z,30.23
2022-08-03T15:28:32.588Z,29.80
2022-08-03T15:30:59.493Z,29.12
2022-08-03T15:33:26.341Z,28.87
2022-08-03T15:35:53.452Z,28.21
2022-08-03T15:38:25.756Z,28.23
2022-08-03T15:40:56.966Z,28.36
2022-08-03T15:43:24.245Z,28.24
2022-08-03T15:46:12.715Z,28.30
2022-08-03T15:48:38.950Z,27.01
2022-08-03T15:51:06.339Z,27.47
2022-08-03T15:53:33.756Z,26.11
2022-08-03T15:56:01.054Z,25.68
2022-08-03T15:59:09.608Z,25.65
2022-08-03T16:01:22.167Z,25.35
2022-08-03T16:03:49.028Z,26.25
2022-08-03T16:06:16.001Z,25.89
2022-08-03T16:08:43.817Z,26.37
2022-08-03T16:11:11.149Z,26.98
2022-08-03T16:14:12.871Z,26.88
2022-08-03T16:16:24.844Z,26.15
2022-08-03T16:18:51.703Z,25.97
2022-08-03T16:21:20.026Z,26.25
2022-08-03T16:23:48.948Z,26.45
2022-08-03T16:26:15.940Z,26.30
2022-08-03T16:28:42.664Z,25.76
2022-08-03T16:31:10.729Z,25.17
2022-08-03T16:33:37.575Z,25.08
2022-08-03T16:36:04.511Z,25.55
2022-08-03T16:38:31.539Z,25.54
2022-08-03T16:40:58.812Z,25.44
2022-08-03T16:43:28.374Z,24.85
2022-08-03T16:45:55.258Z,24.81
2022-08-03T16:48:22.999Z,24.47
2022-08-03T16:50:49.945Z,24.56
2022-08-03T16:53:33.692Z,24.51
2022-08-03T16:56:09.516Z,24.83
2022-08-03T16:58:42.055Z,24.99
2022-08-03T17:01:21.898Z,25.04
2022-08-03T17:04:02.251Z,25.38
2022-08-03T17:06:38.485Z,24.89
2022-08-03T17:09:23.293Z,25.25
2022-08-03T17:12:01.716Z,25.28
2022-08-03T17:14:58.101Z,25.29
2022-08-03T17:17:37.723Z,25.68
2022-08-03T17:20:19.687Z,25.93
2022-08-03T17:23:04.054Z,26.20
2022-08-03T17:25:51.261Z,25.88
2022-08-03T17:28:50.423Z,26.21
2022-08-03T17:31:23.591Z,26.97
2022-08-03T17:34:01.143Z,27.19
2022-08-03T17:36:47.588Z,27.14
2022-08-03T17:39:23.519Z,27.00
2022-08-03T17:42:00.833Z,27.18
2022-08-03T17:44:33.157Z,27.16
2022-08-03T17:47:07.403Z,27.52
2022-08-03T17:49:39.976Z,27.56
2022-08-03T17:52:19.101Z,27.25
2022-08-03T17:55:50.891Z,27.43
2022-08-03T17:58:02.765Z,27.39
2022-08-03T18:00:51.522Z,27.38
2022-08-03T18:06:34.886Z,27.22
2022-08-03T18:09:05.196Z,27.23
2022-08-03T18:11:55.645Z,27.41
2022-08-03T18:14:39.256Z,27.30
2022-08-03T18:17:10.381Z,27.48
2022-08-03T18:20:02.472Z,27.37
2022-08-03T18:22:27.217Z,27.23
2022-08-03T18:25:00.267Z,27.44
2022-08-03T18:27:42.702Z,26.99
2022-08-03T18:30:13.822Z,26.99
2022-08-03T18:32:43.966Z,27.33
2022-08-03T18:35:53.571Z,26.68
2022-08-03T18:38:18.785Z,26.80
2022-08-03T18:40:48.589Z,26.94
2022-08-03T18:43:17.575Z,27.12
2022-08-03T18:45:57.231Z,27.59
2022-08-03T18:48:57.046Z,27.45
2022-08-03T18:51:28.753Z,27.15
2022-08-03T18:54:59.078Z,26.58
2022-08-03T18:57:02.111Z,27.32
2022-08-03T18:59:40.678Z,27.32
2022-08-03T19:02:26.714Z,27.25
2022-08-03T19:04:59.503Z,27.30
2022-08-03T19:07:27.531Z,27.21
2022-08-03T19:10:09.414Z,27.14
2022-08-03T19:12:48.345Z,27.00
2022-08-03T19:15:15.647Z,26.64
2022-08-03T19:17:53.002Z,26.43
2022-08-03T19:20:22.864Z,26.35
2022-08-03T19:22:53.431Z,26.14
2022-08-03T19:25:20.858Z,25.95
2022-08-03T19:28:07.480Z,26.36
2022-08-03T19:30:39.131Z,26.28
2022-08-03T19:33:09.871Z,26.08
2022-08-03T19:35:46.992Z,26.36
2022-08-03T19:38:29.254Z,26.03
2022-08-03T19:40:59.777Z,25.86
2022-08-03T19:43:49.285Z,25.59
2022-08-03T19:46:30.346Z,25.78
2022-08-03T19:49:10.289Z,25.63
2022-08-03T19:52:00.616Z,25.75
2022-08-03T19:54:29.984Z,26.13
2022-08-03T19:57:01.731Z,26.39
2022-08-03T19:59:33.592Z,26.13
2022-08-03T20:02:00.579Z,26.13
2022-08-03T20:04:27.421Z,26.22
2022-08-03T20:06:57.146Z,26.08
2022-08-03T20:09:25.378Z,25.81
2022-08-03T20:11:57.383Z,25.84
2022-08-03T20:14:26.723Z,26.01
2022-08-03T20:16:53.906Z,26.06
2022-08-03T20:19:21.492Z,26.06
2022-08-03T20:21:50.756Z,26.04
2022-08-03T20:24:23.425Z,26.28
2022-08-03T20:26:54.213Z,26.24
2022-08-03T20:30:06.355Z,25.99
2022-08-03T20:32:29.883Z,25.93
2022-08-03T20:34:58.983Z,25.83
2022-08-03T20:37:25.765Z,25.48
2022-08-03T20:39:54.420Z,25.67
2022-08-03T20:42:22.312Z,25.42
2022-08-03T20:45:04.802Z,25.90
2022-08-03T20:50:22.471Z,26.21
2022-08-03T20:52:50.593Z,26.09
2022-08-03T20:55:47.783Z,26.16
2022-08-03T20:58:09.136Z,25.67
2022-08-03T21:00:35.961Z,25.93
2022-08-03T21:03:03.944Z,25.91
2022-08-03T21:05:47.913Z,26.02
2022-08-03T21:08:26.920Z,25.73
2022-08-03T21:10:57.440Z,25.85
2022-08-03T21:12:56.491Z,26.89
2022-08-03T21:13:07.506Z,26.13
2022-08-03T21:13:39.336Z,26.00
2022-08-03T21:16:14.227Z,26.10
2022-08-03T21:18:50.267Z,25.00
2022-08-03T21:21:20.920Z,25.56
2022-08-03T21:23:59.146Z,25.29
2022-08-03T21:26:27.209Z,25.26
2022-08-03T21:28:56.640Z,25.51
2022-08-03T21:31:26.219Z,25.48
2022-08-03T21:33:56.547Z,25.21
2022-08-03T21:36:25.741Z,24.75
2022-08-03T21:38:57.267Z,25.02
2022-08-03T21:41:31.037Z,25.14
2022-08-03T21:43:59.202Z,25.27
2022-08-03T21:46:27.270Z,25.18
2022-08-03T21:50:05.363Z,25.40
2022-08-03T21:51:49.523Z,25.07
2022-08-03T21:54:18.671Z,25.49
2022-08-03T21:56:48.319Z,25.06
2022-08-03T21:59:20.102Z,25.22
2022-08-03T22:01:48.817Z,25.36
2022-08-03T22:04:50.817Z,25.51
2022-08-03T22:07:08.339Z,25.38
2022-08-03T22:09:36.179Z,25.35
2022-08-03T22:12:03.734Z,25.34
2022-08-03T22:14:32.877Z,25.33
2022-08-03T22:17:00.747Z,25.30
2022-08-03T22:19:32.971Z,25.37
2022-08-03T22:22:00.451Z,25.37
2022-08-03T22:24:32.017Z,25.16
2022-08-03T22:27:21.232Z,25.25
2022-08-03T22:29:50.401Z,25.08
2022-08-03T22:32:17.274Z,24.80
2022-08-03T22:34:46.571Z,24.56
2022-08-03T22:37:17.459Z,24.88
2022-08-03T22:39:44.866Z,24.98
2022-08-03T22:42:12.737Z,24.87
2022-08-03T22:44:40.214Z,24.90
2022-08-03T22:47:07.466Z,24.96
2022-08-03T22:49:35.752Z,24.97
2022-08-03T22:52:02.705Z,24.86
2022-08-03T22:54:31.703Z,24.98
2022-08-03T22:56:59.179Z,24.89
2022-08-03T22:59:39.128Z,24.53
2022-08-03T23:02:21.100Z,24.73
2022-08-03T23:04:57.391Z,25.02
2022-08-03T23:07:33.541Z,24.29
2022-08-03T23:10:09.898Z,24.64
2022-08-03T23:12:39.211Z,24.80
2022-08-03T23:15:08.786Z,24.92
2022-08-03T23:17:58.313Z,24.76
2022-08-03T23:20:26.915Z,24.39
2022-08-03T23:22:57.684Z,23.61
2022-08-03T23:25:25.225Z,24.22
2022-08-03T23:28:04.891Z,24.63
2022-08-03T23:30:37.182Z,24.62
2022-08-03T23:33:04.445Z,24.91
2022-08-03T23:36:17.238Z,25.00
2022-08-03T23:38:36.871Z,24.81
2022-08-03T23:41:05.140Z,24.93
2022-08-03T23:43:52.293Z,24.96
2022-08-03T23:46:25.792Z,24.64
2022-08-03T23:48:53.647Z,24.07
2022-08-03T23:51:43.008Z,24.08
2022-08-03T23:54:18.748Z,24.01
2022-08-03T23:57:18.655Z,24.41
